sensor_id;sensor_type;location;lat;lon;timestamp;temperature;humidity
30678;DHT22;17437;47.188;8.896;2023-06-10T00:00:12;20.40;99.90
30678;DHT22;17437;47.188;8.896;2023-06-10T00:02:45;20.20;99.90
30678;DHT22;17437;47.188;8.896;2023-06-10T00:05:18;20.20;99.90
30678;DHT22;17437;47.188;8.896;2023-06-10T00:07:51;20.10;99.90
30678;DHT22;17437;47.188;8.896;2023-06-10T00:10:24;20.00;99.90
30678;DHT22;17437;47.188;8.896;2023-06-10T00:12:56;20.10;99.90
30678;DHT22;17437;47.188;8.896;2023-06-10T00:15:29;20.10;99.90
30678;DHT22;17437;47.188;8.896;2023-06-10T00:18:01;20.10;99.90
30678;DHT22;17437;47.188;8.896;2023-06-10T00:20:34;20.10;99.90
30678;DHT22;17437;47.188;8.896;2023-06-10T00:23:06;20.20;99.90
30678;DHT22;17437;47.188;8.896;2023-06-10T00:25:38;20.20;99.90
30678;DHT22;17437;47.188;8.896;2023-06-10T00:28:10;20.20;99.90
30678;DHT22;17437;47.188;8.896;2023-06-10T00:30:42;20.30;99.90
30678;DHT22;17437;47.188;8.896;2023-06-10T00:33:13;20.30;99.90
30678;DHT22;17437;47.188;8.896;2023-06-10T00:35:46;20.30;99.90
30678;DHT22;17437;47.188;8.896;2023-06-10T00:38:18;20.30;99.90
30678;DHT22;17437;47.188;8.896;2023-06-10T00:40:49;20.20;99.90
30678;DHT22;17437;47.188;8.896;2023-06-10T00:43:21;20.10;99.90
30678;DHT22;17437;47.188;8.896;2023-06-10T00:45:52;20.10;99.90
30678;DHT22;17437;47.188;8.896;2023-06-10T00:48:25;20.10;99.90
30678;DHT22;17437;47.188;8.896;2023-06-10T00:50:57;20.20;99.90
30678;DHT22;17437;47.188;8.896;2023-06-10T00:53:30;20.20;99.90
30678;DHT22;17437;47.188;8.896;2023-06-10T00:56:01;20.10;99.90
30678;DHT22;17437;47.188;8.896;2023-06-10T00:58:33;20.10;99.90
30678;DHT22;17437;47.188;8.896;2023-06-10T01:01:06;20.10;99.90
30678;DHT22;17437;47.188;8.896;2023-06-10T01:03:42;20.10;99.90
30678;DHT22;17437;47.188;8.896;2023-06-10T01:06:22;20.10;99.90
30678;DHT22;17437;47.188;8.896;2023-06-10T01:08:59;20.10;99.90
30678;DHT22;17437;47.188;8.896;2023-06-10T01:11:34;20.10;99.90
30678;DHT22;17437;47.188;8.896;2023-06-10T01:14:05;20.10;99.90
30678;DHT22;17437;47.188;8.896;2023-06-10T01:16:39;20.10;99.90
30678;DHT22;17437;47.188;8.896;2023-06-10T01:19:11;20.10;99.90
30678;DHT22;17437;47.188;8.896;2023-06-10T01:21:44;20.10;99.90
30678;DHT22;17437;47.188;8.896;2023-06-10T01:24:18;20.00;99.90
30678;DHT22;17437;47.188;8.896;2023-06-10T01:26:51;19.90;99.90
30678;DHT22;17437;47.188;8.896;2023-06-10T01:29:28;19.80;99.90
30678;DHT22;17437;47.188;8.896;2023-06-10T01:32:04;19.70;99.90
30678;DHT22;17437;47.188;8.896;2023-06-10T01:34:36;19.60;99.90
30678;DHT22;17437;47.188;8.896;2023-06-10T01:37:09;19.70;99.90
30678;DHT22;17437;47.188;8.896;2023-06-10T01:39:43;19.70;99.90
30678;DHT22;17437;47.188;8.896;2023-06-10T01:42:17;19.70;99.90
30678;DHT22;17437;47.188;8.896;2023-06-10T01:44:49;19.70;99.90
30678;DHT22;17437;47.188;8.896;2023-06-10T01:47:21;19.70;99.90
30678;DHT22;17437;47.188;8.896;2023-06-10T01:49:52;19.70;99.90
30678;DHT22;17437;47.188;8.896;2023-06-10T01:52:24;19.70;99.90
30678;DHT22;17437;47.188;8.896;2023-06-10T01:54:56;19.80;99.90
30678;DHT22;17437;47.188;8.896;2023-06-10T01:57:28;19.80;99.90
30678;DHT22;17437;47.188;8.896;2023-06-10T02:00:00;19.70;99.90
30678;DHT22;17437;47.188;8.896;2023-06-10T02:02:32;19.70;99.90
30678;DHT22;17437;47.188;8.896;2023-06-10T02:05:05;19.70;99.90
30678;DHT22;17437;47.188;8.896;2023-06-10T02:07:37;19.70;99.90
30678;DHT22;17437;47.188;8.896;2023-06-10T02:10:09;19.70;99.90
30678;DHT22;17437;47.188;8.896;2023-06-10T02:12:41;19.70;99.90
30678;DHT22;17437;47.188;8.896;2023-06-10T02:15:13;19.70;99.90
30678;DHT22;17437;47.188;8.896;2023-06-10T02:17:44;19.70;99.90
30678;DHT22;17437;47.188;8.896;2023-06-10T02:20:16;19.70;99.90
30678;DHT22;17437;47.188;8.896;2023-06-10T02:22:47;19.80;99.90
30678;DHT22;17437;47.188;8.896;2023-06-10T02:25:19;19.80;99.90
30678;DHT22;17437;47.188;8.896;2023-06-10T02:27:51;19.80;99.90
30678;DHT22;17437;47.188;8.896;2023-06-10T02:30:22;19.70;99.90
30678;DHT22;17437;47.188;8.896;2023-06-10T02:32:54;19.60;99.90
30678;DHT22;17437;47.188;8.896;2023-06-10T02:35:26;19.40;99.90
30678;DHT22;17437;47.188;8.896;2023-06-10T02:37:58;19.30;99.90
30678;DHT22;17437;47.188;8.896;2023-06-10T02:40:30;19.40;99.90
30678;DHT22;17437;47.188;8.896;2023-06-10T02:43:02;19.40;99.90
30678;DHT22;17437;47.188;8.896;2023-06-10T02:45:34;19.40;99.90
30678;DHT22;17437;47.188;8.896;2023-06-10T02:48:06;19.50;99.90
30678;DHT22;17437;47.188;8.896;2023-06-10T02:50:37;19.50;99.90
30678;DHT22;17437;47.188;8.896;2023-06-10T02:53:10;19.50;99.90
30678;DHT22;17437;47.188;8.896;2023-06-10T02:55:43;19.60;99.90
30678;DHT22;17437;47.188;8.896;2023-06-10T02:58:15;19.50;99.90
30678;DHT22;17437;47.188;8.896;2023-06-10T03:00:46;19.40;99.90
30678;DHT22;17437;47.188;8.896;2023-06-10T03:03:19;19.40;99.90
30678;DHT22;17437;47.188;8.896;2023-06-10T03:05:53;19.40;99.90
30678;DHT22;17437;47.188;8.896;2023-06-10T03:08:24;19.40;99.90
30678;DHT22;17437;47.188;8.896;2023-06-10T03:10:56;19.30;99.90
30678;DHT22;17437;47.188;8.896;2023-06-10T03:13:28;19.30;99.90
30678;DHT22;17437;47.188;8.896;2023-06-10T03:16:00;19.20;99.90
30678;DHT22;17437;47.188;8.896;2023-06-10T03:18:33;19.20;99.90
30678;DHT22;17437;47.188;8.896;2023-06-10T03:21:04;19.20;99.90
30678;DHT22;17437;47.188;8.896;2023-06-10T03:23:36;19.10;99.90
30678;DHT22;17437;47.188;8.896;2023-06-10T03:26:08;19.10;99.90
30678;DHT22;17437;47.188;8.896;2023-06-10T03:28:40;19.00;99.90
30678;DHT22;17437;47.188;8.896;2023-06-10T03:31:12;19.00;99.90
30678;DHT22;17437;47.188;8.896;2023-06-10T03:33:43;19.00;99.90
30678;DHT22;17437;47.188;8.896;2023-06-10T03:36:15;19.00;99.90
30678;DHT22;17437;47.188;8.896;2023-06-10T03:38:47;19.00;99.90
30678;DHT22;17437;47.188;8.896;2023-06-10T03:41:20;19.00;99.90
30678;DHT22;17437;47.188;8.896;2023-06-10T03:43:52;18.90;99.90
30678;DHT22;17437;47.188;8.896;2023-06-10T03:46:23;19.00;99.90
30678;DHT22;17437;47.188;8.896;2023-06-10T03:48:55;19.00;99.90
30678;DHT22;17437;47.188;8.896;2023-06-10T03:51:29;19.00;99.90
30678;DHT22;17437;47.188;8.896;2023-06-10T03:54:00;19.10;99.90
30678;DHT22;17437;47.188;8.896;2023-06-10T03:56:32;19.10;99.90
30678;DHT22;17437;47.188;8.896;2023-06-10T03:59:04;19.20;99.90
30678;DHT22;17437;47.188;8.896;2023-06-10T04:01:36;19.20;99.90
30678;DHT22;17437;47.188;8.896;2023-06-10T04:04:12;19.30;99.90
30678;DHT22;17437;47.188;8.896;2023-06-10T04:06:42;19.30;99.90
30678;DHT22;17437;47.188;8.896;2023-06-10T04:09:14;19.40;99.90
30678;DHT22;17437;47.188;8.896;2023-06-10T04:11:46;19.40;99.90
30678;DHT22;17437;47.188;8.896;2023-06-10T04:14:19;19.60;99.90
30678;DHT22;17437;47.188;8.896;2023-06-10T04:16:51;19.60;99.90
30678;DHT22;17437;47.188;8.896;2023-06-10T04:19:22;19.60;99.90
30678;DHT22;17437;47.188;8.896;2023-06-10T04:21:54;19.80;99.90
30678;DHT22;17437;47.188;8.896;2023-06-10T04:24:25;20.00;99.90
30678;DHT22;17437;47.188;8.896;2023-06-10T04:26:57;20.20;99.90
30678;DHT22;17437;47.188;8.896;2023-06-10T04:29:30;20.40;99.90
30678;DHT22;17437;47.188;8.896;2023-06-10T04:32:02;20.70;99.90
30678;DHT22;17437;47.188;8.896;2023-06-10T04:34:36;21.10;99.90
30678;DHT22;17437;47.188;8.896;2023-06-10T04:37:09;21.70;99.90
30678;DHT22;17437;47.188;8.896;2023-06-10T04:39:40;23.00;99.90
30678;DHT22;17437;47.188;8.896;2023-06-10T04:42:12;24.10;99.90
30678;DHT22;17437;47.188;8.896;2023-06-10T04:44:43;24.50;99.90
30678;DHT22;17437;47.188;8.896;2023-06-10T04:47:15;24.50;99.90
30678;DHT22;17437;47.188;8.896;2023-06-10T04:49:47;24.60;99.90
30678;DHT22;17437;47.188;8.896;2023-06-10T04:52:19;24.30;99.90
30678;DHT22;17437;47.188;8.896;2023-06-10T04:54:51;24.70;99.90
30678;DHT22;17437;47.188;8.896;2023-06-10T04:57:22;26.00;99.90
30678;DHT22;17437;47.188;8.896;2023-06-10T04:59:54;27.20;98.60
30678;DHT22;17437;47.188;8.896;2023-06-10T05:02:26;28.00;96.80
30678;DHT22;17437;47.188;8.896;2023-06-10T05:04:57;28.90;95.00
30678;DHT22;17437;47.188;8.896;2023-06-10T05:07:29;29.50;93.50
30678;DHT22;17437;47.188;8.896;2023-06-10T05:10:01;30.10;92.40
30678;DHT22;17437;47.188;8.896;2023-06-10T05:12:33;30.00;91.10
30678;DHT22;17437;47.188;8.896;2023-06-10T05:15:06;29.90;90.80
30678;DHT22;17437;47.188;8.896;2023-06-10T05:17:38;29.60;91.00
30678;DHT22;17437;47.188;8.896;2023-06-10T05:20:12;29.90;90.60
30678;DHT22;17437;47.188;8.896;2023-06-10T05:22:45;30.20;90.20
30678;DHT22;17437;47.188;8.896;2023-06-10T05:25:17;30.60;89.50
30678;DHT22;17437;47.188;8.896;2023-06-10T05:27:48;30.90;88.10
30678;DHT22;17437;47.188;8.896;2023-06-10T05:30:20;31.20;87.10
30678;DHT22;17437;47.188;8.896;2023-06-10T05:32:52;31.30;86.70
30678;DHT22;17437;47.188;8.896;2023-06-10T05:35:24;31.60;84.40
30678;DHT22;17437;47.188;8.896;2023-06-10T05:37:55;31.40;85.00
30678;DHT22;17437;47.188;8.896;2023-06-10T05:40:29;31.60;84.40
30678;DHT22;17437;47.188;8.896;2023-06-10T05:43:01;32.00;84.50
30678;DHT22;17437;47.188;8.896;2023-06-10T05:45:32;32.30;82.60
30678;DHT22;17437;47.188;8.896;2023-06-10T05:48:05;31.90;82.20
30678;DHT22;17437;47.188;8.896;2023-06-10T05:50:36;31.80;82.40
30678;DHT22;17437;47.188;8.896;2023-06-10T05:53:10;31.70;82.10
30678;DHT22;17437;47.188;8.896;2023-06-10T05:55:44;31.70;82.80
30678;DHT22;17437;47.188;8.896;2023-06-10T05:58:15;32.10;82.20
30678;DHT22;17437;47.188;8.896;2023-06-10T06:00:47;31.40;81.20
30678;DHT22;17437;47.188;8.896;2023-06-10T06:03:19;31.80;81.00
30678;DHT22;17437;47.188;8.896;2023-06-10T06:05:51;32.10;80.70
30678;DHT22;17437;47.188;8.896;2023-06-10T06:08:22;32.40;79.10
30678;DHT22;17437;47.188;8.896;2023-06-10T06:10:54;32.50;78.50
30678;DHT22;17437;47.188;8.896;2023-06-10T06:13:26;32.70;78.30
30678;DHT22;17437;47.188;8.896;2023-06-10T06:15:57;32.80;77.20
30678;DHT22;17437;47.188;8.896;2023-06-10T06:18:29;32.90;78.10
30678;DHT22;17437;47.188;8.896;2023-06-10T06:21:01;32.90;77.90
30678;DHT22;17437;47.188;8.896;2023-06-10T06:23:33;32.70;77.80
30678;DHT22;17437;47.188;8.896;2023-06-10T06:26:04;33.10;76.50
30678;DHT22;17437;47.188;8.896;2023-06-10T06:28:38;33.20;75.90
30678;DHT22;17437;47.188;8.896;2023-06-10T06:31:09;32.90;75.60
30678;DHT22;17437;47.188;8.896;2023-06-10T06:33:41;32.30;76.50
30678;DHT22;17437;47.188;8.896;2023-06-10T06:36:13;31.40;77.80
30678;DHT22;17437;47.188;8.896;2023-06-10T06:38:44;31.20;78.20
30678;DHT22;17437;47.188;8.896;2023-06-10T06:41:16;31.50;78.70
30678;DHT22;17437;47.188;8.896;2023-06-10T06:43:47;31.30;78.50
30678;DHT22;17437;47.188;8.896;2023-06-10T06:46:19;31.00;79.70
30678;DHT22;17437;47.188;8.896;2023-06-10T06:48:51;30.20;79.40
30678;DHT22;17437;47.188;8.896;2023-06-10T06:51:23;29.60;80.60
30678;DHT22;17437;47.188;8.896;2023-06-10T06:53:54;29.70;82.00
30678;DHT22;17437;47.188;8.896;2023-06-10T06:56:27;30.30;81.40
30678;DHT22;17437;47.188;8.896;2023-06-10T06:58:59;30.40;80.20
30678;DHT22;17437;47.188;8.896;2023-06-10T07:01:32;29.70;79.50
30678;DHT22;17437;47.188;8.896;2023-06-10T07:04:04;29.40;81.60
30678;DHT22;17437;47.188;8.896;2023-06-10T07:06:36;29.00;81.50
30678;DHT22;17437;47.188;8.896;2023-06-10T07:09:08;29.50;82.40
30678;DHT22;17437;47.188;8.896;2023-06-10T07:11:40;29.70;82.90
30678;DHT22;17437;47.188;8.896;2023-06-10T07:14:11;30.00;82.10
30678;DHT22;17437;47.188;8.896;2023-06-10T07:16:43;30.20;80.80
30678;DHT22;17437;47.188;8.896;2023-06-10T07:19:16;30.50;80.60
30678;DHT22;17437;47.188;8.896;2023-06-10T07:21:48;30.60;79.70
30678;DHT22;17437;47.188;8.896;2023-06-10T07:24:19;30.70;80.60
30678;DHT22;17437;47.188;8.896;2023-06-10T07:26:51;30.20;79.90
30678;DHT22;17437;47.188;8.896;2023-06-10T07:29:23;30.30;81.10
30678;DHT22;17437;47.188;8.896;2023-06-10T07:31:55;30.70;80.90
30678;DHT22;17437;47.188;8.896;2023-06-10T07:34:27;30.70;81.30
30678;DHT22;17437;47.188;8.896;2023-06-10T07:36:58;30.10;82.20
30678;DHT22;17437;47.188;8.896;2023-06-10T07:39:30;29.50;83.30
30678;DHT22;17437;47.188;8.896;2023-06-10T07:42:02;29.00;84.40
30678;DHT22;17437;47.188;8.896;2023-06-10T07:44:34;28.40;85.20
30678;DHT22;17437;47.188;8.896;2023-06-10T07:47:06;27.80;85.60
30678;DHT22;17437;47.188;8.896;2023-06-10T07:49:38;27.50;86.60
30678;DHT22;17437;47.188;8.896;2023-06-10T07:52:11;26.60;88.90
30678;DHT22;17437;47.188;8.896;2023-06-10T07:54:42;26.00;90.70
30678;DHT22;17437;47.188;8.896;2023-06-10T07:57:15;25.60;91.20
30678;DHT22;17437;47.188;8.896;2023-06-10T07:59:46;25.40;91.60
30678;DHT22;17437;47.188;8.896;2023-06-10T08:02:19;25.50;91.80
30678;DHT22;17437;47.188;8.896;2023-06-10T08:04:52;25.50;91.40
30678;DHT22;17437;47.188;8.896;2023-06-10T08:07:23;25.30;91.50
30678;DHT22;17437;47.188;8.896;2023-06-10T08:09:55;25.30;92.10
30678;DHT22;17437;47.188;8.896;2023-06-10T08:12:27;25.60;92.30
30678;DHT22;17437;47.188;8.896;2023-06-10T08:14:59;25.70;91.70
30678;DHT22;17437;47.188;8.896;2023-06-10T08:17:30;25.90;91.20
30678;DHT22;17437;47.188;8.896;2023-06-10T08:20:02;26.10;91.40
30678;DHT22;17437;47.188;8.896;2023-06-10T08:22:34;26.20;90.90
30678;DHT22;17437;47.188;8.896;2023-06-10T08:25:07;26.20;90.80
30678;DHT22;17437;47.188;8.896;2023-06-10T08:27:39;26.30;91.60
30678;DHT22;17437;47.188;8.896;2023-06-10T08:30:11;26.40;91.30
30678;DHT22;17437;47.188;8.896;2023-06-10T08:32:44;26.50;90.80
30678;DHT22;17437;47.188;8.896;2023-06-10T08:35:16;26.50;90.50
30678;DHT22;17437;47.188;8.896;2023-06-10T08:37:48;26.50;91.00
30678;DHT22;17437;47.188;8.896;2023-06-10T08:40:20;26.60;90.80
30678;DHT22;17437;47.188;8.896;2023-06-10T08:42:57;26.50;91.30
30678;DHT22;17437;47.188;8.896;2023-06-10T08:45:30;26.50;90.70
30678;DHT22;17437;47.188;8.896;2023-06-10T08:48:03;26.50;90.60
30678;DHT22;17437;47.188;8.896;2023-06-10T08:50:37;26.50;91.20
30678;DHT22;17437;47.188;8.896;2023-06-10T08:53:09;26.70;91.20
30678;DHT22;17437;47.188;8.896;2023-06-10T08:55:43;26.90;91.00
30678;DHT22;17437;47.188;8.896;2023-06-10T08:58:16;27.00;90.50
30678;DHT22;17437;47.188;8.896;2023-06-10T09:00:48;27.00;91.20
30678;DHT22;17437;47.188;8.896;2023-06-10T09:03:19;26.90;90.50
30678;DHT22;17437;47.188;8.896;2023-06-10T09:05:52;26.90;90.90
30678;DHT22;17437;47.188;8.896;2023-06-10T09:08:25;26.80;91.70
30678;DHT22;17437;47.188;8.896;2023-06-10T09:10:57;26.90;91.10
30678;DHT22;17437;47.188;8.896;2023-06-10T09:13:29;27.00;91.20
30678;DHT22;17437;47.188;8.896;2023-06-10T09:16:01;27.10;90.60
30678;DHT22;17437;47.188;8.896;2023-06-10T09:18:34;27.10;91.30
30678;DHT22;17437;47.188;8.896;2023-06-10T09:21:06;27.20;90.50
30678;DHT22;17437;47.188;8.896;2023-06-10T09:23:38;27.20;90.00
30678;DHT22;17437;47.188;8.896;2023-06-10T09:26:10;27.20;90.00
30678;DHT22;17437;47.188;8.896;2023-06-10T09:28:44;27.20;90.10
30678;DHT22;17437;47.188;8.896;2023-06-10T09:31:17;27.10;90.40
30678;DHT22;17437;47.188;8.896;2023-06-10T09:33:50;27.20;89.80
30678;DHT22;17437;47.188;8.896;2023-06-10T09:36:25;27.20;89.40
30678;DHT22;17437;47.188;8.896;2023-06-10T09:38:57;27.30;87.50
30678;DHT22;17437;47.188;8.896;2023-06-10T09:41:33;27.60;87.10
30678;DHT22;17437;47.188;8.896;2023-06-10T09:44:09;28.00;86.50
30678;DHT22;17437;47.188;8.896;2023-06-10T09:46:43;28.20;86.20
30678;DHT22;17437;47.188;8.896;2023-06-10T09:49:16;28.20;85.50
30678;DHT22;17437;47.188;8.896;2023-06-10T09:51:54;28.20;86.30
30678;DHT22;17437;47.188;8.896;2023-06-10T09:54:30;28.10;86.20
30678;DHT22;17437;47.188;8.896;2023-06-10T09:57:06;28.30;85.70
30678;DHT22;17437;47.188;8.896;2023-06-10T09:59:37;28.30;84.90
30678;DHT22;17437;47.188;8.896;2023-06-10T10:02:15;28.20;83.20
30678;DHT22;17437;47.188;8.896;2023-06-10T10:04:47;27.90;85.40
30678;DHT22;17437;47.188;8.896;2023-06-10T10:07:19;28.40;85.00
30678;DHT22;17437;47.188;8.896;2023-06-10T10:09:51;28.40;86.00
30678;DHT22;17437;47.188;8.896;2023-06-10T10:12:22;28.40;84.90
30678;DHT22;17437;47.188;8.896;2023-06-10T10:14:55;28.90;84.50
30678;DHT22;17437;47.188;8.896;2023-06-10T10:17:27;28.90;82.30
30678;DHT22;17437;47.188;8.896;2023-06-10T10:20:04;28.50;84.30
30678;DHT22;17437;47.188;8.896;2023-06-10T10:22:38;28.80;83.60
30678;DHT22;17437;47.188;8.896;2023-06-10T10:25:13;28.90;82.20
30678;DHT22;17437;47.188;8.896;2023-06-10T10:27:48;28.80;82.50
30678;DHT22;17437;47.188;8.896;2023-06-10T10:30:21;28.90;83.10
30678;DHT22;17437;47.188;8.896;2023-06-10T10:32:56;29.10;81.50
30678;DHT22;17437;47.188;8.896;2023-06-10T10:35:30;28.90;82.10
30678;DHT22;17437;47.188;8.896;2023-06-10T10:38:04;29.00;82.10
30678;DHT22;17437;47.188;8.896;2023-06-10T10:40:37;28.70;82.90
30678;DHT22;17437;47.188;8.896;2023-06-10T10:43:09;28.80;82.20
30678;DHT22;17437;47.188;8.896;2023-06-10T10:45:42;28.40;82.20
30678;DHT22;17437;47.188;8.896;2023-06-10T10:48:14;28.20;83.50
30678;DHT22;17437;47.188;8.896;2023-06-10T10:50:56;28.10;83.90
30678;DHT22;17437;47.188;8.896;2023-06-10T10:53:29;27.90;83.90
30678;DHT22;17437;47.188;8.896;2023-06-10T10:56:04;27.70;84.20
30678;DHT22;17437;47.188;8.896;2023-06-10T10:58:36;27.60;85.10
30678;DHT22;17437;47.188;8.896;2023-06-10T11:01:12;27.60;84.90
30678;DHT22;17437;47.188;8.896;2023-06-10T11:03:46;27.70;86.10
30678;DHT22;17437;47.188;8.896;2023-06-10T11:06:19;27.80;86.40
30678;DHT22;17437;47.188;8.896;2023-06-10T11:08:50;27.80;84.60
30678;DHT22;17437;47.188;8.896;2023-06-10T11:11:24;27.80;86.50
30678;DHT22;17437;47.188;8.896;2023-06-10T11:14:08;27.80;84.80
30678;DHT22;17437;47.188;8.896;2023-06-10T11:16:44;27.60;84.10
30678;DHT22;17437;47.188;8.896;2023-06-10T11:19:33;27.70;84.60
30678;DHT22;17437;47.188;8.896;2023-06-10T11:22:07;27.60;83.30
30678;DHT22;17437;47.188;8.896;2023-06-10T11:24:41;27.40;82.90
30678;DHT22;17437;47.188;8.896;2023-06-10T11:27:20;27.30;83.50
30678;DHT22;17437;47.188;8.896;2023-06-10T11:30:17;27.40;84.10
30678;DHT22;17437;47.188;8.896;2023-06-10T11:32:35;27.60;83.10
30678;DHT22;17437;47.188;8.896;2023-06-10T11:35:08;27.60;85.30
30678;DHT22;17437;47.188;8.896;2023-06-10T11:37:40;27.70;83.40
30678;DHT22;17437;47.188;8.896;2023-06-10T11:40:13;27.70;82.70
30678;DHT22;17437;47.188;8.896;2023-06-10T11:42:45;27.70;83.00
30678;DHT22;17437;47.188;8.896;2023-06-10T11:45:17;27.80;84.00
30678;DHT22;17437;47.188;8.896;2023-06-10T11:47:58;28.00;84.10
30678;DHT22;17437;47.188;8.896;2023-06-10T11:50:31;27.90;83.00
30678;DHT22;17437;47.188;8.896;2023-06-10T11:53:03;27.60;82.90
30678;DHT22;17437;47.188;8.896;2023-06-10T11:55:43;27.50;84.30
30678;DHT22;17437;47.188;8.896;2023-06-10T11:58:14;27.60;85.50
30678;DHT22;17437;47.188;8.896;2023-06-10T12:00:47;27.70;84.20
30678;DHT22;17437;47.188;8.896;2023-06-10T12:03:19;27.80;85.90
30678;DHT22;17437;47.188;8.896;2023-06-10T12:05:58;28.00;84.80
30678;DHT22;17437;47.188;8.896;2023-06-10T12:08:30;28.10;83.20
30678;DHT22;17437;47.188;8.896;2023-06-10T12:11:03;28.30;82.20
30678;DHT22;17437;47.188;8.896;2023-06-10T12:13:35;28.30;83.40
30678;DHT22;17437;47.188;8.896;2023-06-10T12:16:11;28.20;83.20
30678;DHT22;17437;47.188;8.896;2023-06-10T12:18:44;28.30;85.10
30678;DHT22;17437;47.188;8.896;2023-06-10T12:21:20;28.50;83.30
30678;DHT22;17437;47.188;8.896;2023-06-10T12:24:03;28.50;82.90
30678;DHT22;17437;47.188;8.896;2023-06-10T12:26:37;28.40;82.50
30678;DHT22;17437;47.188;8.896;2023-06-10T12:29:21;28.50;83.40
30678;DHT22;17437;47.188;8.896;2023-06-10T12:32:01;28.60;82.70
30678;DHT22;17437;47.188;8.896;2023-06-10T12:34:37;28.60;82.90
30678;DHT22;17437;47.188;8.896;2023-06-10T12:37:11;28.70;83.00
30678;DHT22;17437;47.188;8.896;2023-06-10T12:39:50;28.30;83.90
30678;DHT22;17437;47.188;8.896;2023-06-10T12:42:22;28.20;85.40
30678;DHT22;17437;47.188;8.896;2023-06-10T12:44:54;28.40;85.30
30678;DHT22;17437;47.188;8.896;2023-06-10T12:47:31;28.40;83.70
30678;DHT22;17437;47.188;8.896;2023-06-10T12:50:07;28.30;85.60
30678;DHT22;17437;47.188;8.896;2023-06-10T12:52:40;28.40;85.50
30678;DHT22;17437;47.188;8.896;2023-06-10T12:55:12;28.40;85.10
30678;DHT22;17437;47.188;8.896;2023-06-10T12:57:50;28.40;84.00
30678;DHT22;17437;47.188;8.896;2023-06-10T13:00:22;28.30;85.20
30678;DHT22;17437;47.188;8.896;2023-06-10T13:02:56;28.40;83.90
30678;DHT22;17437;47.188;8.896;2023-06-10T13:05:28;28.60;84.60
30678;DHT22;17437;47.188;8.896;2023-06-10T13:08:00;28.70;83.00
30678;DHT22;17437;47.188;8.896;2023-06-10T13:10:32;28.70;84.10
30678;DHT22;17437;47.188;8.896;2023-06-10T13:13:04;28.90;82.50
30678;DHT22;17437;47.188;8.896;2023-06-10T13:15:37;28.90;82.90
30678;DHT22;17437;47.188;8.896;2023-06-10T13:18:11;29.00;83.20
30678;DHT22;17437;47.188;8.896;2023-06-10T13:20:43;28.90;82.80
30678;DHT22;17437;47.188;8.896;2023-06-10T13:23:14;28.50;84.60
30678;DHT22;17437;47.188;8.896;2023-06-10T13:25:46;28.70;84.40
30678;DHT22;17437;47.188;8.896;2023-06-10T13:28:18;28.90;84.40
30678;DHT22;17437;47.188;8.896;2023-06-10T13:30:50;28.90;84.20
30678;DHT22;17437;47.188;8.896;2023-06-10T13:33:21;29.10;83.50
30678;DHT22;17437;47.188;8.896;2023-06-10T13:35:53;29.30;83.60
30678;DHT22;17437;47.188;8.896;2023-06-10T13:38:25;29.40;83.00
30678;DHT22;17437;47.188;8.896;2023-06-10T13:40:56;29.30;81.30
30678;DHT22;17437;47.188;8.896;2023-06-10T13:43:30;29.00;82.20
30678;DHT22;17437;47.188;8.896;2023-06-10T13:46:02;29.00;82.40
30678;DHT22;17437;47.188;8.896;2023-06-10T13:48:33;29.10;83.50
30678;DHT22;17437;47.188;8.896;2023-06-10T13:51:05;29.30;83.40
30678;DHT22;17437;47.188;8.896;2023-06-10T13:53:37;29.60;82.30
30678;DHT22;17437;47.188;8.896;2023-06-10T13:56:09;29.90;82.30
30678;DHT22;17437;47.188;8.896;2023-06-10T13:58:40;30.00;82.80
30678;DHT22;17437;47.188;8.896;2023-06-10T14:01:13;30.00;82.10
30678;DHT22;17437;47.188;8.896;2023-06-10T14:03:45;29.90;81.60
30678;DHT22;17437;47.188;8.896;2023-06-10T14:06:17;29.80;82.60
30678;DHT22;17437;47.188;8.896;2023-06-10T14:08:49;29.70;81.70
30678;DHT22;17437;47.188;8.896;2023-06-10T14:11:20;29.90;81.30
30678;DHT22;17437;47.188;8.896;2023-06-10T14:13:52;30.00;81.00
30678;DHT22;17437;47.188;8.896;2023-06-10T14:16:25;30.00;81.00
30678;DHT22;17437;47.188;8.896;2023-06-10T14:18:57;29.80;80.20
30678;DHT22;17437;47.188;8.896;2023-06-10T14:21:28;29.50;81.70
30678;DHT22;17437;47.188;8.896;2023-06-10T14:24:03;29.30;80.10
30678;DHT22;17437;47.188;8.896;2023-06-10T14:26:37;29.20;81.20
30678;DHT22;17437;47.188;8.896;2023-06-10T14:29:09;29.10;81.00
30678;DHT22;17437;47.188;8.896;2023-06-10T14:31:40;29.10;81.80
30678;DHT22;17437;47.188;8.896;2023-06-10T14:34:13;29.10;81.80
30678;DHT22;17437;47.188;8.896;2023-06-10T14:36:45;28.80;81.90
30678;DHT22;17437;47.188;8.896;2023-06-10T14:39:16;28.70;83.10
30678;DHT22;17437;47.188;8.896;2023-06-10T14:41:48;28.60;83.80
30678;DHT22;17437;47.188;8.896;2023-06-10T14:44:20;28.60;85.70
30678;DHT22;17437;47.188;8.896;2023-06-10T14:46:52;28.40;85.50
30678;DHT22;17437;47.188;8.896;2023-06-10T14:49:23;28.10;85.70
30678;DHT22;17437;47.188;8.896;2023-06-10T14:51:55;28.00;86.30
30678;DHT22;17437;47.188;8.896;2023-06-10T14:54:27;28.00;84.90
30678;DHT22;17437;47.188;8.896;2023-06-10T14:56:59;28.00;85.70
30678;DHT22;17437;47.188;8.896;2023-06-10T14:59:30;28.00;84.70
30678;DHT22;17437;47.188;8.896;2023-06-10T15:02:02;28.10;84.90
30678;DHT22;17437;47.188;8.896;2023-06-10T15:04:34;28.20;86.30
30678;DHT22;17437;47.188;8.896;2023-06-10T15:07:06;28.40;83.90
30678;DHT22;17437;47.188;8.896;2023-06-10T15:09:38;28.60;84.70
30678;DHT22;17437;47.188;8.896;2023-06-10T15:12:10;28.90;82.20
30678;DHT22;17437;47.188;8.896;2023-06-10T15:14:41;29.10;79.30
30678;DHT22;17437;47.188;8.896;2023-06-10T15:17:13;29.20;81.80
30678;DHT22;17437;47.188;8.896;2023-06-10T15:19:44;29.50;82.80
30678;DHT22;17437;47.188;8.896;2023-06-10T15:22:16;29.60;80.50
30678;DHT22;17437;47.188;8.896;2023-06-10T15:24:48;29.70;81.60
30678;DHT22;17437;47.188;8.896;2023-06-10T15:27:20;29.70;81.40
30678;DHT22;17437;47.188;8.896;2023-06-10T15:29:51;29.60;81.60
30678;DHT22;17437;47.188;8.896;2023-06-10T15:32:23;29.60;82.00
30678;DHT22;17437;47.188;8.896;2023-06-10T15:34:55;29.60;80.20
30678;DHT22;17437;47.188;8.896;2023-06-10T15:37:26;29.60;79.20
30678;DHT22;17437;47.188;8.896;2023-06-10T15:39:58;29.60;79.60
30678;DHT22;17437;47.188;8.896;2023-06-10T15:42:30;29.50;79.60
30678;DHT22;17437;47.188;8.896;2023-06-10T15:45:01;29.30;79.60
30678;DHT22;17437;47.188;8.896;2023-06-10T15:47:33;29.10;78.00
30678;DHT22;17437;47.188;8.896;2023-06-10T15:50:06;29.00;74.20
30678;DHT22;17437;47.188;8.896;2023-06-10T15:52:38;28.70;72.40
30678;DHT22;17437;47.188;8.896;2023-06-10T15:55:10;28.60;73.80
30678;DHT22;17437;47.188;8.896;2023-06-10T15:57:42;28.70;74.80
30678;DHT22;17437;47.188;8.896;2023-06-10T16:00:16;28.70;73.70
30678;DHT22;17437;47.188;8.896;2023-06-10T16:02:48;28.70;72.00